sensor_id;sensor_type;location;lat;lon;timestamp;temperature;humidity
8593;DHT22;4334;49.982;8.398;2023-11-22T00:14:16;5.70;99.90
8593;DHT22;4334;49.982;8.398;2023-11-22T00:16:44;5.70;99.90
8593;DHT22;4334;49.982;8.398;2023-11-22T00:19:11;5.70;99.90
8593;DHT22;4334;49.982;8.398;2023-11-22T00:24:07;5.60;99.90
8593;DHT22;4334;49.982;8.398;2023-11-22T00:34:01;5.40;99.90
8593;DHT22;4334;49.982;8.398;2023-11-22T00:41:30;5.40;99.90
8593;DHT22;4334;49.982;8.398;2023-11-22T00:51:20;5.10;99.90
8593;DHT22;4334;49.982;8.398;2023-11-22T00:58:42;4.90;99.90
8593;DHT22;4334;49.982;8.398;2023-11-22T01:08:33;4.80;99.90
8593;DHT22;4334;49.982;8.398;2023-11-22T01:25:48;4.50;99.90
8593;DHT22;4334;49.982;8.398;2023-11-22T01:30:43;4.40;99.90
8593;DHT22;4334;49.982;8.398;2023-11-22T01:38:07;4.30;99.90
8593;DHT22;4334;49.982;8.398;2023-11-22T01:43:02;4.00;99.90
8593;DHT22;4334;49.982;8.398;2023-11-22T02:00:15;3.70;99.90
8593;DHT22;4334;49.982;8.398;2023-11-22T02:02:43;3.90;99.90
8593;DHT22;4334;49.982;8.398;2023-11-22T02:10:07;3.70;99.90
8593;DHT22;4334;49.982;8.398;2023-11-22T02:17:30;3.70;99.90
8593;DHT22;4334;49.982;8.398;2023-11-22T02:24:55;3.60;99.90
8593;DHT22;4334;49.982;8.398;2023-11-22T02:39:47;3.90;99.90
8593;DHT22;4334;49.982;8.398;2023-11-22T02:42:19;4.10;99.90
8593;DHT22;4334;49.982;8.398;2023-11-22T02:52:07;3.80;99.90
8593;DHT22;4334;49.982;8.398;2023-11-22T02:59:34;3.80;99.90
8593;DHT22;4334;49.982;8.398;2023-11-22T03:09:22;3.80;99.90
8593;DHT22;4334;49.982;8.398;2023-11-22T03:14:16;3.90;99.90
8593;DHT22;4334;49.982;8.398;2023-11-22T03:16:45;3.90;99.90
8593;DHT22;4334;49.982;8.398;2023-11-22T03:26:36;3.20;99.90
8593;DHT22;4334;49.982;8.398;2023-11-22T03:34:00;3.00;99.90
8593;DHT22;4334;49.982;8.398;2023-11-22T03:51:11;3.20;99.90
8593;DHT22;4334;49.982;8.398;2023-11-22T03:56:05;3.40;99.90
8593;DHT22;4334;49.982;8.398;2023-11-22T04:01:00;3.40;99.90
8593;DHT22;4334;49.982;8.398;2023-11-22T04:08:24;3.40;99.90
8593;DHT22;4334;49.982;8.398;2023-11-22T04:18:13;3.30;99.90
8593;DHT22;4334;49.982;8.398;2023-11-22T04:25:42;3.00;99.90
8593;DHT22;4334;49.982;8.398;2023-11-22T04:33:03;2.80;99.90
8593;DHT22;4334;49.982;8.398;2023-11-22T04:42:57;2.40;99.90
8593;DHT22;4334;49.982;8.398;2023-11-22T04:45:24;2.40;99.90
8593;DHT22;4334;49.982;8.398;2023-11-22T05:00:10;2.20;99.90
8593;DHT22;4334;49.982;8.398;2023-11-22T05:02:38;2.10;99.90
8593;DHT22;4334;49.982;8.398;2023-11-22T05:05:06;2.10;99.90
8593;DHT22;4334;49.982;8.398;2023-11-22T05:10:04;2.20;99.90
8593;DHT22;4334;49.982;8.398;2023-11-22T05:17:27;2.20;99.90
8593;DHT22;4334;49.982;8.398;2023-11-22T05:19:54;2.20;99.90
8593;DHT22;4334;49.982;8.398;2023-11-22T05:22:20;2.10;99.90
8593;DHT22;4334;49.982;8.398;2023-11-22T05:24:48;1.90;99.90
8593;DHT22;4334;49.982;8.398;2023-11-22T05:27:17;1.90;99.90
8593;DHT22;4334;49.982;8.398;2023-11-22T05:29:44;1.80;99.90
8593;DHT22;4334;49.982;8.398;2023-11-22T05:34:39;1.70;99.90
8593;DHT22;4334;49.982;8.398;2023-11-22T05:39:34;1.50;99.90
8593;DHT22;4334;49.982;8.398;2023-11-22T05:42:02;1.50;99.90
8593;DHT22;4334;49.982;8.398;2023-11-22T05:44:29;1.40;99.90
8593;DHT22;4334;49.982;8.398;2023-11-22T05:46:56;1.40;99.90
8593;DHT22;4334;49.982;8.398;2023-11-22T05:51:51;1.50;99.90
8593;DHT22;4334;49.982;8.398;2023-11-22T05:54:18;1.70;99.90
8593;DHT22;4334;49.982;8.398;2023-11-22T05:56:44;1.90;99.90
8593;DHT22;4334;49.982;8.398;2023-11-22T05:59:11;1.90;99.90
8593;DHT22;4334;49.982;8.398;2023-11-22T06:01:39;2.10;99.90
8593;DHT22;4334;49.982;8.398;2023-11-22T06:04:05;2.10;99.90
8593;DHT22;4334;49.982;8.398;2023-11-22T06:06:34;2.80;99.90
8593;DHT22;4334;49.982;8.398;2023-11-22T06:09:03;1.90;99.90
8593;DHT22;4334;49.982;8.398;2023-11-22T06:11:30;1.90;99.90
8593;DHT22;4334;49.982;8.398;2023-11-22T06:13:57;1.90;99.90
8593;DHT22;4334;49.982;8.398;2023-11-22T06:16:24;2.00;99.90
8593;DHT22;4334;49.982;8.398;2023-11-22T06:18:51;1.90;99.90
8593;DHT22;4334;49.982;8.398;2023-11-22T06:21:18;3.00;99.90
8593;DHT22;4334;49.982;8.398;2023-11-22T06:23:45;2.10;99.90
8593;DHT22;4334;49.982;8.398;2023-11-22T06:26:13;2.20;99.90
8593;DHT22;4334;49.982;8.398;2023-11-22T06:28:40;2.00;99.90
8593;DHT22;4334;49.982;8.398;2023-11-22T06:31:08;1.90;99.90
8593;DHT22;4334;49.982;8.398;2023-11-22T06:33:35;3.20;99.90
8593;DHT22;4334;49.982;8.398;2023-11-22T06:36:02;1.90;99.90
8593;DHT22;4334;49.982;8.398;2023-11-22T06:38:29;2.00;99.90
8593;DHT22;4334;49.982;8.398;2023-11-22T06:43:24;2.10;99.90
8593;DHT22;4334;49.982;8.398;2023-11-22T06:45:51;2.10;99.90
8593;DHT22;4334;49.982;8.398;2023-11-22T06:48:18;2.10;99.90
8593;DHT22;4334;49.982;8.398;2023-11-22T06:55:39;2.60;99.90
8593;DHT22;4334;49.982;8.398;2023-11-22T07:00:35;2.60;99.90
8593;DHT22;4334;49.982;8.398;2023-11-22T07:03:02;2.60;99.90
8593;DHT22;4334;49.982;8.398;2023-11-22T07:05:28;2.70;99.90
8593;DHT22;4334;49.982;8.398;2023-11-22T07:07:55;2.70;99.90
8593;DHT22;4334;49.982;8.398;2023-11-22T07:10:22;2.80;99.90
8593;DHT22;4334;49.982;8.398;2023-11-22T07:12:49;2.70;99.90
8593;DHT22;4334;49.982;8.398;2023-11-22T07:15:16;2.80;99.90
8593;DHT22;4334;49.982;8.398;2023-11-22T07:17:44;2.80;99.90
8593;DHT22;4334;49.982;8.398;2023-11-22T07:20:11;2.90;99.90
8593;DHT22;4334;49.982;8.398;2023-11-22T07:22:42;3.00;99.90
8593;DHT22;4334;49.982;8.398;2023-11-22T07:25:09;3.60;99.90
8593;DHT22;4334;49.982;8.398;2023-11-22T07:27:44;3.00;99.90
8593;DHT22;4334;49.982;8.398;2023-11-22T07:30:12;3.00;99.90
8593;DHT22;4334;49.982;8.398;2023-11-22T07:32:39;3.00;99.90
8593;DHT22;4334;49.982;8.398;2023-11-22T07:35:08;3.10;99.90
8593;DHT22;4334;49.982;8.398;2023-11-22T07:37:35;3.10;99.90
8593;DHT22;4334;49.982;8.398;2023-11-22T07:40:06;3.10;99.90
8593;DHT22;4334;49.982;8.398;2023-11-22T07:42:35;3.20;99.90
8593;DHT22;4334;49.982;8.398;2023-11-22T07:45:02;3.20;99.90
8593;DHT22;4334;49.982;8.398;2023-11-22T07:47:29;5.10;99.90
8593;DHT22;4334;49.982;8.398;2023-11-22T07:49:57;3.20;99.90
8593;DHT22;4334;49.982;8.398;2023-11-22T07:52:25;3.10;99.90
8593;DHT22;4334;49.982;8.398;2023-11-22T07:54:55;3.20;99.90
8593;DHT22;4334;49.982;8.398;2023-11-22T07:57:22;3.20;99.90
8593;DHT22;4334;49.982;8.398;2023-11-22T07:59:49;3.30;99.90
8593;DHT22;4334;49.982;8.398;2023-11-22T08:02:17;3.20;99.90
8593;DHT22;4334;49.982;8.398;2023-11-22T08:04:45;3.40;99.90
8593;DHT22;4334;49.982;8.398;2023-11-22T08:07:12;3.50;99.90
8593;DHT22;4334;49.982;8.398;2023-11-22T08:09:41;3.40;99.90
8593;DHT22;4334;49.982;8.398;2023-11-22T08:12:09;3.40;99.90
8593;DHT22;4334;49.982;8.398;2023-11-22T08:14:36;3.50;99.90
8593;DHT22;4334;49.982;8.398;2023-11-22T08:17:04;3.50;99.90
8593;DHT22;4334;49.982;8.398;2023-11-22T08:19:31;3.80;99.90
8593;DHT22;4334;49.982;8.398;2023-11-22T08:21:58;4.40;99.90
8593;DHT22;4334;49.982;8.398;2023-11-22T08:24:24;4.40;99.90
8593;DHT22;4334;49.982;8.398;2023-11-22T08:26:53;4.10;99.90
8593;DHT22;4334;49.982;8.398;2023-11-22T08:29:20;3.70;99.90
8593;DHT22;4334;49.982;8.398;2023-11-22T08:31:47;3.50;99.90
8593;DHT22;4334;49.982;8.398;2023-11-22T08:34:21;3.60;99.90
8593;DHT22;4334;49.982;8.398;2023-11-22T08:36:50;4.20;99.90
8593;DHT22;4334;49.982;8.398;2023-11-22T08:39:17;4.70;99.90
8593;DHT22;4334;49.982;8.398;2023-11-22T08:41:44;5.10;99.90
8593;DHT22;4334;49.982;8.398;2023-11-22T08:44:14;4.70;99.90
8593;DHT22;4334;49.982;8.398;2023-11-22T08:46:41;4.50;99.90
8593;DHT22;4334;49.982;8.398;2023-11-22T08:49:08;4.50;99.90
8593;DHT22;4334;49.982;8.398;2023-11-22T08:51:37;4.50;99.90
8593;DHT22;4334;49.982;8.398;2023-11-22T08:54:03;4.10;99.90
8593;DHT22;4334;49.982;8.398;2023-11-22T08:56:30;3.80;99.90
8593;DHT22;4334;49.982;8.398;2023-11-22T08:58:57;3.90;99.90
8593;DHT22;4334;49.982;8.398;2023-11-22T09:01:25;3.90;99.90
8593;DHT22;4334;49.982;8.398;2023-11-22T09:03:52;4.00;99.90
8593;DHT22;4334;49.982;8.398;2023-11-22T09:06:19;3.90;99.90
8593;DHT22;4334;49.982;8.398;2023-11-22T09:08:46;4.00;99.90
8593;DHT22;4334;49.982;8.398;2023-11-22T09:11:14;4.30;99.90
8593;DHT22;4334;49.982;8.398;2023-11-22T09:13:42;3.60;99.90
8593;DHT22;4334;49.982;8.398;2023-11-22T09:16:10;3.70;99.90
8593;DHT22;4334;49.982;8.398;2023-11-22T09:18:39;3.80;99.90
8593;DHT22;4334;49.982;8.398;2023-11-22T09:21:06;8.00;99.90
8593;DHT22;4334;49.982;8.398;2023-11-22T09:23:35;3.80;99.90
8593;DHT22;4334;49.982;8.398;2023-11-22T09:26:01;3.90;99.90
8593;DHT22;4334;49.982;8.398;2023-11-22T09:28:28;3.80;99.90
8593;DHT22;4334;49.982;8.398;2023-11-22T09:30:56;3.80;99.90
8593;DHT22;4334;49.982;8.398;2023-11-22T09:33:31;4.00;99.90
8593;DHT22;4334;49.982;8.398;2023-11-22T09:35:59;4.10;99.90
8593;DHT22;4334;49.982;8.398;2023-11-22T09:38:29;4.30;99.90
8593;DHT22;4334;49.982;8.398;2023-11-22T09:40:56;4.00;99.90
8593;DHT22;4334;49.982;8.398;2023-11-22T09:43:25;3.80;99.90
8593;DHT22;4334;49.982;8.398;2023-11-22T09:45:54;3.80;99.90
8593;DHT22;4334;49.982;8.398;2023-11-22T09:48:23;3.90;99.90
8593;DHT22;4334;49.982;8.398;2023-11-22T09:50:57;7.80;99.90
8593;DHT22;4334;49.982;8.398;2023-11-22T09:53:31;4.00;99.90
8593;DHT22;4334;49.982;8.398;2023-11-22T09:55:58;4.20;99.90
8593;DHT22;4334;49.982;8.398;2023-11-22T09:58:30;4.60;99.90
8593;DHT22;4334;49.982;8.398;2023-11-22T10:00:57;4.80;99.90
8593;DHT22;4334;49.982;8.398;2023-11-22T10:03:25;4.70;99.90
8593;DHT22;4334;49.982;8.398;2023-11-22T10:05:54;4.60;99.90
8593;DHT22;4334;49.982;8.398;2023-11-22T10:08:23;4.90;99.90
8593;DHT22;4334;49.982;8.398;2023-11-22T10:10:51;4.80;99.90
8593;DHT22;4334;49.982;8.398;2023-11-22T10:13:19;4.90;99.90
8593;DHT22;4334;49.982;8.398;2023-11-22T10:15:47;4.50;99.90
8593;DHT22;4334;49.982;8.398;2023-11-22T10:18:14;4.30;99.90
8593;DHT22;4334;49.982;8.398;2023-11-22T10:20:42;4.50;99.90
8593;DHT22;4334;49.982;8.398;2023-11-22T10:23:13;4.60;99.90
8593;DHT22;4334;49.982;8.398;2023-11-22T10:25:43;4.80;99.90
8593;DHT22;4334;49.982;8.398;2023-11-22T10:28:14;4.80;99.90
8593;DHT22;4334;49.982;8.398;2023-11-22T10:30:41;6.70;99.90
8593;DHT22;4334;49.982;8.398;2023-11-22T10:33:10;4.80;99.90
8593;DHT22;4334;49.982;8.398;2023-11-22T10:35:39;4.90;99.90
8593;DHT22;4334;49.982;8.398;2023-11-22T10:40:36;5.00;99.90
8593;DHT22;4334;49.982;8.398;2023-11-22T10:43:05;5.00;99.90
8593;DHT22;4334;49.982;8.398;2023-11-22T10:45:35;4.80;99.90
8593;DHT22;4334;49.982;8.398;2023-11-22T10:48:04;4.90;99.90
8593;DHT22;4334;49.982;8.398;2023-11-22T10:50:32;5.10;99.90
8593;DHT22;4334;49.982;8.398;2023-11-22T10:53:01;5.00;99.90
8593;DHT22;4334;49.982;8.398;2023-11-22T10:55:33;4.70;99.90
8593;DHT22;4334;49.982;8.398;2023-11-22T10:58:03;4.50;99.90
8593;DHT22;4334;49.982;8.398;2023-11-22T11:00:31;4.30;99.90
8593;DHT22;4334;49.982;8.398;2023-11-22T11:03:07;4.40;99.90
8593;DHT22;4334;49.982;8.398;2023-11-22T11:05:38;4.50;99.90
8593;DHT22;4334;49.982;8.398;2023-11-22T11:08:08;4.60;99.90
8593;DHT22;4334;49.982;8.398;2023-11-22T11:10:38;4.50;99.90
8593;DHT22;4334;49.982;8.398;2023-11-22T11:13:06;4.50;99.90
8593;DHT22;4334;49.982;8.398;2023-11-22T11:15:33;4.50;99.90
8593;DHT22;4334;49.982;8.398;2023-11-22T11:18:03;4.20;99.90
8593;DHT22;4334;49.982;8.398;2023-11-22T11:20:32;4.10;99.90
8593;DHT22;4334;49.982;8.398;2023-11-22T11:23:01;4.00;99.90
8593;DHT22;4334;49.982;8.398;2023-11-22T11:25:32;4.00;99.90
8593;DHT22;4334;49.982;8.398;2023-11-22T11:27:59;4.10;99.90
8593;DHT22;4334;49.982;8.398;2023-11-22T11:30:45;4.10;99.90
8593;DHT22;4334;49.982;8.398;2023-11-22T11:33:17;4.40;99.90
8593;DHT22;4334;49.982;8.398;2023-11-22T11:35:46;4.60;99.90
8593;DHT22;4334;49.982;8.398;2023-11-22T11:38:14;4.90;99.90
8593;DHT22;4334;49.982;8.398;2023-11-22T11:40:42;4.90;99.90
8593;DHT22;4334;49.982;8.398;2023-11-22T11:43:10;5.10;99.90
8593;DHT22;4334;49.982;8.398;2023-11-22T11:45:38;5.90;99.90
8593;DHT22;4334;49.982;8.398;2023-11-22T11:48:12;5.70;99.90
8593;DHT22;4334;49.982;8.398;2023-11-22T11:50:41;5.40;99.90
8593;DHT22;4334;49.982;8.398;2023-11-22T11:53:09;5.30;99.90
8593;DHT22;4334;49.982;8.398;2023-11-22T11:55:36;5.30;99.90
8593;DHT22;4334;49.982;8.398;2023-11-22T11:58:07;5.90;99.90
8593;DHT22;4334;49.982;8.398;2023-11-22T12:00:35;6.70;99.90
8593;DHT22;4334;49.982;8.398;2023-11-22T12:03:06;7.80;99.90
8593;DHT22;4334;49.982;8.398;2023-11-22T12:05:35;8.50;99.90
8593;DHT22;4334;49.982;8.398;2023-11-22T12:08:03;8.60;99.90
8593;DHT22;4334;49.982;8.398;2023-11-22T12:10:31;7.80;99.90
8593;DHT22;4334;49.982;8.398;2023-11-22T12:12:58;8.80;99.90
8593;DHT22;4334;49.982;8.398;2023-11-22T12:15:25;8.60;99.90
8593;DHT22;4334;49.982;8.398;2023-11-22T12:17:52;8.40;99.90
8593;DHT22;4334;49.982;8.398;2023-11-22T12:20:23;8.30;99.90
8593;DHT22;4334;49.982;8.398;2023-11-22T12:22:51;8.20;99.90
8593;DHT22;4334;49.982;8.398;2023-11-22T12:25:20;8.10;99.90
8593;DHT22;4334;49.982;8.398;2023-11-22T12:27:47;8.60;99.90
8593;DHT22;4334;49.982;8.398;2023-11-22T12:30:31;8.80;99.90
8593;DHT22;4334;49.982;8.398;2023-11-22T12:33:02;9.40;98.00
8593;DHT22;4334;49.982;8.398;2023-11-22T12:35:30;8.50;98.30
8593;DHT22;4334;49.982;8.398;2023-11-22T12:37:58;7.70;99.70
8593;DHT22;4334;49.982;8.398;2023-11-22T12:40:27;7.60;99.90
8593;DHT22;4334;49.982;8.398;2023-11-22T12:45:26;8.20;99.70
8593;DHT22;4334;49.982;8.398;2023-11-22T12:47:55;8.90;99.00
8593;DHT22;4334;49.982;8.398;2023-11-22T12:50:32;8.70;98.10
8593;DHT22;4334;49.982;8.398;2023-11-22T12:53:08;8.40;98.40
8593;DHT22;4334;49.982;8.398;2023-11-22T13:10:23;6.90;99.10
8593;DHT22;4334;49.982;8.398;2023-11-22T13:12:54;6.40;99.90
8593;DHT22;4334;49.982;8.398;2023-11-22T13:17:53;5.60;99.90
8593;DHT22;4334;49.982;8.398;2023-11-22T13:20:22;5.50;99.90
8593;DHT22;4334;49.982;8.398;2023-11-22T13:30:13;5.00;99.90
8593;DHT22;4334;49.982;8.398;2023-11-22T13:35:09;4.60;99.90
8593;DHT22;4334;49.982;8.398;2023-11-22T13:37:41;4.60;99.90
8593;DHT22;4334;49.982;8.398;2023-11-22T13:40:10;7.90;99.90
8593;DHT22;4334;49.982;8.398;2023-11-22T13:45:08;4.80;99.90
8593;DHT22;4334;49.982;8.398;2023-11-22T13:47:36;4.90;99.90
8593;DHT22;4334;49.982;8.398;2023-11-22T13:50:22;4.90;99.90
8593;DHT22;4334;49.982;8.398;2023-11-22T13:52:49;5.00;99.90
8593;DHT22;4334;49.982;8.398;2023-11-22T14:00:16;4.80;99.90
8593;DHT22;4334;49.982;8.398;2023-11-22T14:02:46;4.40;99.90
8593;DHT22;4334;49.982;8.398;2023-11-22T14:15:05;4.50;99.90
8593;DHT22;4334;49.982;8.398;2023-11-22T14:20:01;4.30;99.90
8593;DHT22;4334;49.982;8.398;2023-11-22T14:27:26;4.00;99.90
8593;DHT22;4334;49.982;8.398;2023-11-22T14:37:18;4.40;99.90
8593;DHT22;4334;49.982;8.398;2023-11-22T14:54:37;4.00;99.90
8593;DHT22;4334;49.982;8.398;2023-11-22T15:02:00;3.80;99.90
8593;DHT22;4334;49.982;8.398;2023-11-22T15:06:59;3.50;99.90
8593;DHT22;4334;49.982;8.398;2023-11-22T15:11:55;3.50;99.90
8593;DHT22;4334;49.982;8.398;2023-11-22T15:29:10;2.80;99.90
8593;DHT22;4334;49.982;8.398;2023-11-22T15:39:01;2.70;99.90
8593;DHT22;4334;49.982;8.398;2023-11-22T15:41:28;2.60;99.90
8593;DHT22;4334;49.982;8.398;2023-11-22T15:46:24;2.50;99.90
8593;DHT22;4334;49.982;8.398;2023-11-22T16:03:37;2.50;99.90
8593;DHT22;4334;49.982;8.398;2023-11-22T16:06:05;2.50;99.90
8593;DHT22;4334;49.982;8.398;2023-11-22T16:20:55;2.30;99.90
8593;DHT22;4334;49.982;8.398;2023-11-22T16:38:07;2.50;99.90
8593;DHT22;4334;49.982;8.398;2023-11-22T16:45:29;2.50;99.90
8593;DHT22;4334;49.982;8.398;2023-11-22T16:47:56;2.50;99.90
8593;DHT22;4334;49.982;8.398;2023-11-22T16:55:20;2.40;99.90
8593;DHT22;4334;49.982;8.398;2023-11-22T17:00:14;2.40;99.90
8593;DHT22;4334;49.982;8.398;2023-11-22T17:05:15;2.30;99.90
8593;DHT22;4334;49.982;8.398;2023-11-22T17:10:09;2.30;99.90
8593;DHT22;4334;49.982;8.398;2023-11-22T17:12:39;2.20;99.90
8593;DHT22;4334;49.982;8.398;2023-11-22T17:15:07;2.10;99.90
8593;DHT22;4334;49.982;8.398;2023-11-22T17:29:53;1.90;99.90
8593;DHT22;4334;49.982;8.398;2023-11-22T18:01:49;1.80;99.90
8593;DHT22;4334;49.982;8.398;2023-11-22T18:04:17;1.90;99.90
8593;DHT22;4334;49.982;8.398;2023-11-22T18:21:29;1.80;99.90
8593;DHT22;4334;49.982;8.398;2023-11-22T18:26:23;1.60;99.90
8593;DHT22;4334;49.982;8.398;2023-11-22T18:28:50;1.60;99.90
8593;DHT22;4334;49.982;8.398;2023-11-22T18:33:43;1.70;99.90
8593;DHT22;4334;49.982;8.398;2023-11-22T18:36:10;1.70;99.90
8593;DHT22;4334;49.982;8.398;2023-11-22T18:38:39;1.70;99.90
8593;DHT22;4334;49.982;8.398;2023-11-22T18:41:09;1.70;99.90
8593;DHT22;4334;49.982;8.398;2023-11-22T18:43:36;1.70;99.90
8593;DHT22;4334;49.982;8.398;2023-11-22T18:46:04;1.70;99.90
8593;DHT22;4334;49.982;8.398;2023-11-22T18:48:33;1.70;99.90
8593;DHT22;4334;49.982;8.398;2023-11-22T18:51:00;1.70;99.90
8593;DHT22;4334;49.982;8.398;2023-11-22T18:53:27;1.60;99.90
8593;DHT22;4334;49.982;8.398;2023-11-22T18:55:55;1.70;99.90
8593;DHT22;4334;49.982;8.398;2023-11-22T18:58:22;1.70;99.90
8593;DHT22;4334;49.982;8.398;2023-11-22T19:00:49;0.70;99.90
8593;DHT22;4334;49.982;8.398;2023-11-22T19:03:16;2.00;99.90
8593;DHT22;4334;49.982;8.398;2023-11-22T19:05:43;1.70;99.90
8593;DHT22;4334;49.982;8.398;2023-11-22T19:08:10;1.80;99.90
8593;DHT22;4334;49.982;8.398;2023-11-22T19:10:36;1.80;99.90
8593;DHT22;4334;49.982;8.398;2023-11-22T19:13:05;4.60;99.90
8593;DHT22;4334;49.982;8.398;2023-11-22T19:15:41;1.90;99.90
8593;DHT22;4334;49.982;8.398;2023-11-22T19:18:08;2.00;99.90
8593;DHT22;4334;49.982;8.398;2023-11-22T19:20:35;2.00;99.90
8593;DHT22;4334;49.982;8.398;2023-11-22T19:23:03;2.00;99.90
8593;DHT22;4334;49.982;8.398;2023-11-22T19:25:31;2.10;99.90
8593;DHT22;4334;49.982;8.398;2023-11-22T19:27:58;2.20;99.90
8593;DHT22;4334;49.982;8.398;2023-11-22T19:30:27;2.20;99.90
8593;DHT22;4334;49.982;8.398;2023-11-22T19:32:54;2.10;99.90
8593;DHT22;4334;49.982;8.398;2023-11-22T19:35:21;2.10;99.90
8593;DHT22;4334;49.982;8.398;2023-11-22T19:37:48;2.10;99.90
8593;DHT22;4334;49.982;8.398;2023-11-22T19:40:15;2.10;99.90
8593;DHT22;4334;49.982;8.398;2023-11-22T19:42:41;2.10;99.90
8593;DHT22;4334;49.982;8.398;2023-11-22T19:45:09;2.10;99.90
8593;DHT22;4334;49.982;8.398;2023-11-22T19:47:39;2.00;99.90
8593;DHT22;4334;49.982;8.398;2023-11-22T19:50:08;2.00;99.90
8593;DHT22;4334;49.982;8.398;2023-11-22T19:52:35;2.00;99.90
8593;DHT22;4334;49.982;8.398;2023-11-22T19:55:06;2.10;99.90
8593;DHT22;4334;49.982;8.398;2023-11-22T19:57:33;2.00;99.90
8593;DHT22;4334;49.982;8.398;2023-11-22T20:00:00;2.00;99.90
8593;DHT22;4334;49.982;8.398;2023-11-22T20:02:30;1.90;99.90
8593;DHT22;4334;49.982;8.398;2023-11-22T20:04:58;1.80;99.90
8593;DHT22;4334;49.982;8.398;2023-11-22T20:07:25;1.80;99.90
8593;DHT22;4334;49.982;8.398;2023-11-22T20:09:52;1.80;99.90
8593;DHT22;4334;49.982;8.398;2023-11-22T20:12:19;1.70;99.90
8593;DHT22;4334;49.982;8.398;2023-11-22T20:17:13;1.60;99.90
8593;DHT22;4334;49.982;8.398;2023-11-22T20:19:40;1.60;99.90
8593;DHT22;4334;49.982;8.398;2023-11-22T20:22:09;1.70;99.90
8593;DHT22;4334;49.982;8.398;2023-11-22T20:24:36;1.60;99.90
8593;DHT22;4334;49.982;8.398;2023-11-22T20:27:05;1.60;99.90
8593;DHT22;4334;49.982;8.398;2023-11-22T20:29:32;4.50;99.90
8593;DHT22;4334;49.982;8.398;2023-11-22T20:31:58;1.40;99.90
8593;DHT22;4334;49.982;8.398;2023-11-22T20:39:21;1.60;99.90
8593;DHT22;4334;49.982;8.398;2023-11-22T20:41:48;1.50;99.90
8593;DHT22;4334;49.982;8.398;2023-11-22T20:44:16;1.40;99.90
8593;DHT22;4334;49.982;8.398;2023-11-22T20:46:43;1.30;99.90
8593;DHT22;4334;49.982;8.398;2023-11-22T20:49:10;4.70;99.90
8593;DHT22;4334;49.982;8.398;2023-11-22T20:51:37;1.40;99.90
8593;DHT22;4334;49.982;8.398;2023-11-22T20:54:04;1.40;99.90
8593;DHT22;4334;49.982;8.398;2023-11-22T20:56:32;1.50;99.90
8593;DHT22;4334;49.982;8.398;2023-11-22T20:58:59;1.50;99.90
8593;DHT22;4334;49.982;8.398;2023-11-22T21:01:26;1.50;99.90
8593;DHT22;4334;49.982;8.398;2023-11-22T21:03:53;1.40;99.90
8593;DHT22;4334;49.982;8.398;2023-11-22T21:06:20;1.40;99.90
8593;DHT22;4334;49.982;8.398;2023-11-22T21:11:15;1.50;99.90
8593;DHT22;4334;49.982;8.398;2023-11-22T21:13:43;1.60;99.90
8593;DHT22;4334;49.982;8.398;2023-11-22T21:16:10;1.60;99.90
8593;DHT22;4334;49.982;8.398;2023-11-22T21:21:06;1.60;99.90
8593;DHT22;4334;49.982;8.398;2023-11-22T21:23:33;1.70;99.90
8593;DHT22;4334;49.982;8.398;2023-11-22T21:26:01;1.70;99.90
8593;DHT22;4334;49.982;8.398;2023-11-22T21:28:28;1.60;99.90
8593;DHT22;4334;49.982;8.398;2023-11-22T21:30:57;1.70;99.90
8593;DHT22;4334;49.982;8.398;2023-11-22T21:33:24;1.70;99.90
8593;DHT22;4334;49.982;8.398;2023-11-22T21:35:50;1.80;99.90
8593;DHT22;4334;49.982;8.398;2023-11-22T21:38:17;6.50;99.90
8593;DHT22;4334;49.982;8.398;2023-11-22T21:40:44;2.00;99.90
8593;DHT22;4334;49.982;8.398;2023-11-22T21:43:11;2.10;99.90
8593;DHT22;4334;49.982;8.398;2023-11-22T21:45:39;2.70;99.90
8593;DHT22;4334;49.982;8.398;2023-11-22T21:48:08;2.20;99.90
8593;DHT22;4334;49.982;8.398;2023-11-22T21:50:34;2.10;99.90
8593;DHT22;4334;49.982;8.398;2023-11-22T21:53:01;2.20;99.90
8593;DHT22;4334;49.982;8.398;2023-11-22T21:55:28;3.20;99.90
8593;DHT22;4334;49.982;8.398;2023-11-22T21:57:55;2.20;99.90
8593;DHT22;4334;49.982;8.398;2023-11-22T22:00:22;2.20;99.90
8593;DHT22;4334;49.982;8.398;2023-11-22T22:02:49;2.20;99.90
8593;DHT22;4334;49.982;8.398;2023-11-22T22:05:17;2.30;99.90
8593;DHT22;4334;49.982;8.398;2023-11-22T22:07:44;2.40;99.90
8593;DHT22;4334;49.982;8.398;2023-11-22T22:10:11;2.30;99.90
8593;DHT22;4334;49.982;8.398;2023-11-22T22:12:38;2.40;99.90
8593;DHT22;4334;49.982;8.398;2023-11-22T22:15:06;2.40;99.90
8593;DHT22;4334;49.982;8.398;2023-11-22T22:17:33;2.40;99.90
8593;DHT22;4334;49.982;8.398;2023-11-22T22:20:00;4.30;99.90
8593;DHT22;4334;49.982;8.398;2023-11-22T22:22:29;2.50;99.90
8593;DHT22;4334;49.982;8.398;2023-11-22T22:24:56;2.50;99.90
8593;DHT22;4334;49.982;8.398;2023-11-22T22:27:22;2.50;99.90
8593;DHT22;4334;49.982;8.398;2023-11-22T22:29:49;2.50;99.90
8593;DHT22;4334;49.982;8.398;2023-11-22T22:32:16;2.40;99.90
8593;DHT22;4334;49.982;8.398;2023-11-22T22:34:43;2.40;99.90
8593;DHT22;4334;49.982;8.398;2023-11-22T22:37:10;2.40;99.90
8593;DHT22;4334;49.982;8.398;2023-11-22T22:39:38;2.40;99.90
8593;DHT22;4334;49.982;8.398;2023-11-22T22:42:05;2.30;99.90
8593;DHT22;4334;49.982;8.398;2023-11-22T22:44:32;2.30;99.90
8593;DHT22;4334;49.982;8.398;2023-11-22T22:46:59;2.20;99.90
8593;DHT22;4334;49.982;8.398;2023-11-22T22:49:26;2.10;99.90
8593;DHT22;4334;49.982;8.398;2023-11-22T22:51:53;2.10;99.90
8593;DHT22;4334;49.982;8.398;2023-11-22T22:54:20;2.10;99.90
8593;DHT22;4334;49.982;8.398;2023-11-22T22:56:48;2.10;99.90
8593;DHT22;4334;49.982;8.398;2023-11-22T22:59:17;2.00;99.90
8593;DHT22;4334;49.982;8.398;2023-11-22T23:01:46;2.00;99.90
8593;DHT22;4334;49.982;8.398;2023-11-22T23:04:13;1.90;99.90
8593;DHT22;4334;49.982;8.398;2023-11-22T23:06:40;1.90;99.90
8593;DHT22;4334;49.982;8.398;2023-11-22T23:09:07;1.90;99.90
8593;DHT22;4334;49.982;8.398;2023-11-22T23:11:35;1.80;99.90
8593;DHT22;4334;49.982;8.398;2023-11-22T23:14:03;1.80;99.90
8593;DHT22;4334;49.982;8.398;2023-11-22T23:16:31;1.70;99.90
8593;DHT22;4334;49.982;8.398;2023-11-22T23:18:58;1.70;99.90
8593;DHT22;4334;49.982;8.398;2023-11-22T23:21:25;1.60;99.90
8593;DHT22;4334;49.982;8.398;2023-11-22T23:23:52;1.60;99.90
8593;DHT22;4334;49.982;8.398;2023-11-22T23:28:47;1.60;99.90
8593;DHT22;4334;49.982;8.398;2023-11-22T23:31:16;1.60;99.90
8593;DHT22;4334;49.982;8.398;2023-11-22T23:33:43;1.50;99.90
8593;DHT22;4334;49.982;8.398;2023-11-22T23:38:38;1.50;99.90
8593;DHT22;4334;49.982;8.398;2023-11-22T23:41:05;2.00;99.90
8593;DHT22;4334;49.982;8.398;2023-11-22T23:43:33;1.50;99.90
8593;DHT22;4334;49.982;8.398;2023-11-22T23:46:01;1.50;99.90
8593;DHT22;4334;49.982;8.398;2023-11-22T23:48:30;1.40;99.90
8593;DHT22;4334;49.982;8.398;2023-11-22T23:53:26;1.40;99.90
8593;DHT22;4334;49.982;8.398;2023-11-22T23:55:53;1.40;99.90
8593;DHT22;4334;49.982;8.398;2023-11-22T23:58:21;1.40;99.90
